RJKB(METAR)
08/13 14:00
RJKB 130500Z 04008KT 9999 FEW015 SCTXXX 31/27 Q1013 RMK A2991=
戻る
トップページへ戻る
IMOC Co,.Ltd.